sensor_id;sensor_type;location;lat;lon;timestamp;temperature;humidity
7566;DHT22;3824;48.010;7.832;2022-09-25T00:02:00;12.20;99.90
7566;DHT22;3824;48.010;7.832;2022-09-25T00:04:27;12.10;99.90
7566;DHT22;3824;48.010;7.832;2022-09-25T00:06:54;12.20;99.90
7566;DHT22;3824;48.010;7.832;2022-09-25T00:09:21;12.20;99.90
7566;DHT22;3824;48.010;7.832;2022-09-25T00:11:48;12.20;99.90
7566;DHT22;3824;48.010;7.832;2022-09-25T00:14:16;12.20;99.90
7566;DHT22;3824;48.010;7.832;2022-09-25T00:16:43;12.20;99.90
7566;DHT22;3824;48.010;7.832;2022-09-25T00:19:18;12.20;99.90
7566;DHT22;3824;48.010;7.832;2022-09-25T00:22:03;12.20;99.90
7566;DHT22;3824;48.010;7.832;2022-09-25T00:24:30;12.20;99.90
7566;DHT22;3824;48.010;7.832;2022-09-25T00:26:57;12.20;99.90
7566;DHT22;3824;48.010;7.832;2022-09-25T00:29:27;12.20;99.90
7566;DHT22;3824;48.010;7.832;2022-09-25T00:31:55;12.20;99.90
7566;DHT22;3824;48.010;7.832;2022-09-25T00:34:22;12.20;99.90
7566;DHT22;3824;48.010;7.832;2022-09-25T00:36:49;12.20;99.90
7566;DHT22;3824;48.010;7.832;2022-09-25T00:39:15;12.20;99.90
7566;DHT22;3824;48.010;7.832;2022-09-25T00:41:42;12.20;99.90
7566;DHT22;3824;48.010;7.832;2022-09-25T00:47:40;12.20;99.90
7566;DHT22;3824;48.010;7.832;2022-09-25T00:50:22;12.30;99.90
7566;DHT22;3824;48.010;7.832;2022-09-25T00:52:51;12.30;99.90
7566;DHT22;3824;48.010;7.832;2022-09-25T00:55:19;12.30;99.90
7566;DHT22;3824;48.010;7.832;2022-09-25T00:57:50;12.30;99.90
7566;DHT22;3824;48.010;7.832;2022-09-25T01:00:17;12.30;99.90
7566;DHT22;3824;48.010;7.832;2022-09-25T01:02:49;12.30;99.90
7566;DHT22;3824;48.010;7.832;2022-09-25T01:05:20;12.30;99.90
7566;DHT22;3824;48.010;7.832;2022-09-25T01:07:48;12.30;99.90
7566;DHT22;3824;48.010;7.832;2022-09-25T01:10:16;12.30;99.90
7566;DHT22;3824;48.010;7.832;2022-09-25T01:12:45;12.20;99.90
7566;DHT22;3824;48.010;7.832;2022-09-25T01:15:15;12.30;99.90
7566;DHT22;3824;48.010;7.832;2022-09-25T01:17:50;12.30;99.90
7566;DHT22;3824;48.010;7.832;2022-09-25T01:23:19;12.30;99.90
7566;DHT22;3824;48.010;7.832;2022-09-25T01:26:03;12.30;99.90
7566;DHT22;3824;48.010;7.832;2022-09-25T01:28:53;12.30;99.90
7566;DHT22;3824;48.010;7.832;2022-09-25T01:31:30;12.40;99.90
7566;DHT22;3824;48.010;7.832;2022-09-25T01:34:01;12.40;99.90
7566;DHT22;3824;48.010;7.832;2022-09-25T01:36:35;12.50;99.90
7566;DHT22;3824;48.010;7.832;2022-09-25T01:39:07;12.40;99.90
7566;DHT22;3824;48.010;7.832;2022-09-25T01:41:41;12.40;99.90
7566;DHT22;3824;48.010;7.832;2022-09-25T01:44:15;12.40;99.90
7566;DHT22;3824;48.010;7.832;2022-09-25T01:46:45;12.50;99.90
7566;DHT22;3824;48.010;7.832;2022-09-25T01:49:19;12.50;99.90
7566;DHT22;3824;48.010;7.832;2022-09-25T01:51:50;12.50;99.90
7566;DHT22;3824;48.010;7.832;2022-09-25T01:54:20;12.50;99.90
7566;DHT22;3824;48.010;7.832;2022-09-25T01:56:52;12.40;99.90
7566;DHT22;3824;48.010;7.832;2022-09-25T01:59:24;12.40;99.90
7566;DHT22;3824;48.010;7.832;2022-09-25T02:01:54;12.40;99.90
7566;DHT22;3824;48.010;7.832;2022-09-25T02:04:23;12.40;99.90
7566;DHT22;3824;48.010;7.832;2022-09-25T02:06:54;12.40;99.90
7566;DHT22;3824;48.010;7.832;2022-09-25T02:09:28;12.30;99.90
7566;DHT22;3824;48.010;7.832;2022-09-25T02:12:01;12.30;99.90
7566;DHT22;3824;48.010;7.832;2022-09-25T02:14:35;12.30;99.90
7566;DHT22;3824;48.010;7.832;2022-09-25T02:17:06;12.40;99.90
7566;DHT22;3824;48.010;7.832;2022-09-25T02:19:35;12.50;99.90
7566;DHT22;3824;48.010;7.832;2022-09-25T02:22:21;12.40;99.90
7566;DHT22;3824;48.010;7.832;2022-09-25T02:24:51;12.50;99.90
7566;DHT22;3824;48.010;7.832;2022-09-25T02:27:21;12.40;99.90
7566;DHT22;3824;48.010;7.832;2022-09-25T02:29:50;12.40;99.90
7566;DHT22;3824;48.010;7.832;2022-09-25T02:32:19;12.40;99.90
7566;DHT22;3824;48.010;7.832;2022-09-25T02:34:47;12.20;99.90
7566;DHT22;3824;48.010;7.832;2022-09-25T02:37:15;12.20;99.90
7566;DHT22;3824;48.010;7.832;2022-09-25T02:39:45;12.10;99.90
7566;DHT22;3824;48.010;7.832;2022-09-25T02:42:27;12.00;99.90
7566;DHT22;3824;48.010;7.832;2022-09-25T02:45:07;12.00;99.90
7566;DHT22;3824;48.010;7.832;2022-09-25T02:47:43;12.00;99.90
7566;DHT22;3824;48.010;7.832;2022-09-25T02:50:20;12.00;99.90
7566;DHT22;3824;48.010;7.832;2022-09-25T02:52:54;12.00;99.90
7566;DHT22;3824;48.010;7.832;2022-09-25T02:55:28;12.00;99.90
7566;DHT22;3824;48.010;7.832;2022-09-25T02:58:00;12.00;99.90
7566;DHT22;3824;48.010;7.832;2022-09-25T03:00:33;12.00;99.90
7566;DHT22;3824;48.010;7.832;2022-09-25T03:03:02;11.90;99.90
7566;DHT22;3824;48.010;7.832;2022-09-25T03:05:30;11.90;99.90
7566;DHT22;3824;48.010;7.832;2022-09-25T03:07:57;11.90;99.90
7566;DHT22;3824;48.010;7.832;2022-09-25T03:10:42;12.00;99.90
7566;DHT22;3824;48.010;7.832;2022-09-25T03:13:15;12.00;99.90
7566;DHT22;3824;48.010;7.832;2022-09-25T03:15:47;12.00;99.90
7566;DHT22;3824;48.010;7.832;2022-09-25T03:18:16;12.10;99.90
7566;DHT22;3824;48.010;7.832;2022-09-25T03:20:43;12.10;99.90
7566;DHT22;3824;48.010;7.832;2022-09-25T03:23:10;12.10;99.90
7566;DHT22;3824;48.010;7.832;2022-09-25T03:25:37;12.20;99.90
7566;DHT22;3824;48.010;7.832;2022-09-25T03:28:07;12.10;99.90
7566;DHT22;3824;48.010;7.832;2022-09-25T03:30:36;12.00;99.90
7566;DHT22;3824;48.010;7.832;2022-09-25T03:33:07;12.10;99.90
7566;DHT22;3824;48.010;7.832;2022-09-25T03:35:35;12.10;99.90
7566;DHT22;3824;48.010;7.832;2022-09-25T03:38:02;12.10;99.90
7566;DHT22;3824;48.010;7.832;2022-09-25T03:40:28;12.10;99.90
7566;DHT22;3824;48.010;7.832;2022-09-25T03:42:55;12.20;99.90
7566;DHT22;3824;48.010;7.832;2022-09-25T03:45:22;12.10;99.90
7566;DHT22;3824;48.010;7.832;2022-09-25T03:47:49;12.20;99.90
7566;DHT22;3824;48.010;7.832;2022-09-25T03:50:17;12.20;99.90
7566;DHT22;3824;48.010;7.832;2022-09-25T03:52:44;12.30;99.90
7566;DHT22;3824;48.010;7.832;2022-09-25T03:55:11;12.30;99.90
7566;DHT22;3824;48.010;7.832;2022-09-25T03:57:37;12.30;99.90
7566;DHT22;3824;48.010;7.832;2022-09-25T04:00:06;12.30;99.90
7566;DHT22;3824;48.010;7.832;2022-09-25T04:02:33;12.30;99.90
7566;DHT22;3824;48.010;7.832;2022-09-25T04:04:59;12.30;99.90
7566;DHT22;3824;48.010;7.832;2022-09-25T04:07:29;12.30;99.90
7566;DHT22;3824;48.010;7.832;2022-09-25T04:09:56;12.30;99.90
7566;DHT22;3824;48.010;7.832;2022-09-25T04:12:23;12.30;99.90
7566;DHT22;3824;48.010;7.832;2022-09-25T04:14:51;12.40;99.90
7566;DHT22;3824;48.010;7.832;2022-09-25T04:17:18;12.30;99.90
7566;DHT22;3824;48.010;7.832;2022-09-25T04:19:45;12.40;99.90
7566;DHT22;3824;48.010;7.832;2022-09-25T04:22:12;12.40;99.90
7566;DHT22;3824;48.010;7.832;2022-09-25T04:24:40;12.40;99.90
7566;DHT22;3824;48.010;7.832;2022-09-25T04:27:19;12.50;99.90
7566;DHT22;3824;48.010;7.832;2022-09-25T04:29:46;12.40;99.90
7566;DHT22;3824;48.010;7.832;2022-09-25T04:32:14;12.40;99.90
7566;DHT22;3824;48.010;7.832;2022-09-25T04:34:58;12.40;99.90
7566;DHT22;3824;48.010;7.832;2022-09-25T04:37:25;12.40;99.90
7566;DHT22;3824;48.010;7.832;2022-09-25T04:39:54;12.30;99.90
7566;DHT22;3824;48.010;7.832;2022-09-25T04:42:21;12.40;99.90
7566;DHT22;3824;48.010;7.832;2022-09-25T04:44:49;12.40;99.90
7566;DHT22;3824;48.010;7.832;2022-09-25T04:47:17;12.40;99.90
7566;DHT22;3824;48.010;7.832;2022-09-25T04:49:44;12.40;99.90
7566;DHT22;3824;48.010;7.832;2022-09-25T04:52:11;12.40;99.90
7566;DHT22;3824;48.010;7.832;2022-09-25T04:54:38;12.50;99.90
7566;DHT22;3824;48.010;7.832;2022-09-25T04:57:06;12.40;99.90
7566;DHT22;3824;48.010;7.832;2022-09-25T04:59:33;12.30;99.90
7566;DHT22;3824;48.010;7.832;2022-09-25T05:02:00;12.40;99.90
7566;DHT22;3824;48.010;7.832;2022-09-25T05:04:26;12.40;99.90
7566;DHT22;3824;48.010;7.832;2022-09-25T05:06:53;12.40;99.90
7566;DHT22;3824;48.010;7.832;2022-09-25T05:09:20;12.40;99.90
7566;DHT22;3824;48.010;7.832;2022-09-25T05:11:46;12.40;99.90
7566;DHT22;3824;48.010;7.832;2022-09-25T05:14:15;12.40;99.90
7566;DHT22;3824;48.010;7.832;2022-09-25T05:16:42;12.40;99.90
7566;DHT22;3824;48.010;7.832;2022-09-25T05:19:09;12.50;99.90
7566;DHT22;3824;48.010;7.832;2022-09-25T05:21:36;12.40;99.90
7566;DHT22;3824;48.010;7.832;2022-09-25T05:24:03;12.40;99.90
7566;DHT22;3824;48.010;7.832;2022-09-25T05:26:29;12.50;99.90
7566;DHT22;3824;48.010;7.832;2022-09-25T05:28:58;12.40;99.90
7566;DHT22;3824;48.010;7.832;2022-09-25T05:31:27;12.50;99.90
7566;DHT22;3824;48.010;7.832;2022-09-25T05:33:54;12.50;99.90
7566;DHT22;3824;48.010;7.832;2022-09-25T05:36:21;12.50;99.90
7566;DHT22;3824;48.010;7.832;2022-09-25T05:38:47;12.50;99.90
7566;DHT22;3824;48.010;7.832;2022-09-25T05:41:14;12.50;99.90
7566;DHT22;3824;48.010;7.832;2022-09-25T05:43:44;12.50;99.90
7566;DHT22;3824;48.010;7.832;2022-09-25T05:46:13;12.50;99.90
7566;DHT22;3824;48.010;7.832;2022-09-25T05:48:41;12.50;99.90
7566;DHT22;3824;48.010;7.832;2022-09-25T05:51:08;12.60;99.90
7566;DHT22;3824;48.010;7.832;2022-09-25T05:53:35;12.60;99.90
7566;DHT22;3824;48.010;7.832;2022-09-25T05:56:03;12.50;99.90
7566;DHT22;3824;48.010;7.832;2022-09-25T05:58:32;12.50;99.90
7566;DHT22;3824;48.010;7.832;2022-09-25T06:00:59;12.50;99.90
7566;DHT22;3824;48.010;7.832;2022-09-25T06:03:27;12.50;99.90
7566;DHT22;3824;48.010;7.832;2022-09-25T06:05:56;12.50;99.90
7566;DHT22;3824;48.010;7.832;2022-09-25T06:08:23;12.50;99.90
7566;DHT22;3824;48.010;7.832;2022-09-25T06:10:51;12.50;99.90
7566;DHT22;3824;48.010;7.832;2022-09-25T06:13:19;12.50;99.90
7566;DHT22;3824;48.010;7.832;2022-09-25T06:15:46;12.50;99.90
7566;DHT22;3824;48.010;7.832;2022-09-25T06:18:17;12.50;99.90
7566;DHT22;3824;48.010;7.832;2022-09-25T06:20:44;12.60;99.90
7566;DHT22;3824;48.010;7.832;2022-09-25T06:23:13;12.60;99.90
7566;DHT22;3824;48.010;7.832;2022-09-25T06:25:40;12.70;99.90
7566;DHT22;3824;48.010;7.832;2022-09-25T06:28:09;12.70;99.90
7566;DHT22;3824;48.010;7.832;2022-09-25T06:30:37;12.60;99.90
7566;DHT22;3824;48.010;7.832;2022-09-25T06:33:06;12.70;99.90
7566;DHT22;3824;48.010;7.832;2022-09-25T06:35:38;12.70;99.90
7566;DHT22;3824;48.010;7.832;2022-09-25T06:38:05;12.70;99.90
7566;DHT22;3824;48.010;7.832;2022-09-25T06:40:34;12.70;99.90
7566;DHT22;3824;48.010;7.832;2022-09-25T06:43:03;12.70;99.90
7566;DHT22;3824;48.010;7.832;2022-09-25T06:45:31;12.70;99.90
7566;DHT22;3824;48.010;7.832;2022-09-25T06:48:03;12.70;99.90
7566;DHT22;3824;48.010;7.832;2022-09-25T06:50:35;12.80;99.90
7566;DHT22;3824;48.010;7.832;2022-09-25T06:53:03;12.80;99.90
7566;DHT22;3824;48.010;7.832;2022-09-25T06:55:30;12.90;99.90
7566;DHT22;3824;48.010;7.832;2022-09-25T06:58:01;12.90;99.90
7566;DHT22;3824;48.010;7.832;2022-09-25T07:00:27;13.00;99.90
7566;DHT22;3824;48.010;7.832;2022-09-25T07:02:56;13.00;99.90
7566;DHT22;3824;48.010;7.832;2022-09-25T07:05:37;13.10;99.90
7566;DHT22;3824;48.010;7.832;2022-09-25T07:08:04;13.10;99.90
7566;DHT22;3824;48.010;7.832;2022-09-25T07:10:30;13.20;99.90
7566;DHT22;3824;48.010;7.832;2022-09-25T07:12:57;13.20;99.90
7566;DHT22;3824;48.010;7.832;2022-09-25T07:15:26;13.20;99.90
7566;DHT22;3824;48.010;7.832;2022-09-25T07:17:53;13.30;99.90
7566;DHT22;3824;48.010;7.832;2022-09-25T07:20:20;13.40;99.90
7566;DHT22;3824;48.010;7.832;2022-09-25T07:22:46;13.50;99.90
7566;DHT22;3824;48.010;7.832;2022-09-25T07:25:13;13.60;99.90
7566;DHT22;3824;48.010;7.832;2022-09-25T07:27:40;13.70;99.90
7566;DHT22;3824;48.010;7.832;2022-09-25T07:30:08;13.90;99.90
7566;DHT22;3824;48.010;7.832;2022-09-25T07:32:36;14.00;99.90
7566;DHT22;3824;48.010;7.832;2022-09-25T07:35:04;14.20;99.90
7566;DHT22;3824;48.010;7.832;2022-09-25T07:37:30;14.30;99.90
7566;DHT22;3824;48.010;7.832;2022-09-25T07:39:57;14.50;99.90
7566;DHT22;3824;48.010;7.832;2022-09-25T07:42:24;14.60;99.90
7566;DHT22;3824;48.010;7.832;2022-09-25T07:44:51;14.70;99.90
7566;DHT22;3824;48.010;7.832;2022-09-25T07:47:18;14.90;99.90
7566;DHT22;3824;48.010;7.832;2022-09-25T07:49:46;15.20;99.90
7566;DHT22;3824;48.010;7.832;2022-09-25T07:52:13;15.40;99.90
7566;DHT22;3824;48.010;7.832;2022-09-25T07:54:40;15.50;99.90
7566;DHT22;3824;48.010;7.832;2022-09-25T07:57:07;15.60;99.90
7566;DHT22;3824;48.010;7.832;2022-09-25T07:59:34;15.70;99.90
7566;DHT22;3824;48.010;7.832;2022-09-25T08:02:01;15.90;99.90
7566;DHT22;3824;48.010;7.832;2022-09-25T08:04:29;15.80;99.90
7566;DHT22;3824;48.010;7.832;2022-09-25T08:06:59;15.90;99.90
7566;DHT22;3824;48.010;7.832;2022-09-25T08:09:26;15.90;99.90
7566;DHT22;3824;48.010;7.832;2022-09-25T08:11:52;15.90;99.90
7566;DHT22;3824;48.010;7.832;2022-09-25T08:14:19;15.80;99.90
7566;DHT22;3824;48.010;7.832;2022-09-25T08:16:47;15.80;99.90
7566;DHT22;3824;48.010;7.832;2022-09-25T08:19:14;15.80;99.90
7566;DHT22;3824;48.010;7.832;2022-09-25T08:21:43;16.00;99.90
7566;DHT22;3824;48.010;7.832;2022-09-25T08:24:11;16.10;99.90
7566;DHT22;3824;48.010;7.832;2022-09-25T08:26:38;16.30;99.90
7566;DHT22;3824;48.010;7.832;2022-09-25T08:29:04;16.60;99.90
7566;DHT22;3824;48.010;7.832;2022-09-25T08:31:32;16.70;99.90
7566;DHT22;3824;48.010;7.832;2022-09-25T08:33:59;16.90;99.90
7566;DHT22;3824;48.010;7.832;2022-09-25T08:36:26;17.00;99.90
7566;DHT22;3824;48.010;7.832;2022-09-25T08:38:53;16.90;99.90
7566;DHT22;3824;48.010;7.832;2022-09-25T08:41:26;16.70;99.90
7566;DHT22;3824;48.010;7.832;2022-09-25T08:43:57;16.50;99.90
7566;DHT22;3824;48.010;7.832;2022-09-25T08:46:38;16.30;99.90
7566;DHT22;3824;48.010;7.832;2022-09-25T08:49:24;16.20;99.90
7566;DHT22;3824;48.010;7.832;2022-09-25T08:51:58;16.10;99.90
7566;DHT22;3824;48.010;7.832;2022-09-25T08:54:28;16.00;99.90
7566;DHT22;3824;48.010;7.832;2022-09-25T08:57:03;15.90;99.90
7566;DHT22;3824;48.010;7.832;2022-09-25T08:59:35;15.80;99.90
7566;DHT22;3824;48.010;7.832;2022-09-25T09:02:11;15.80;99.90
7566;DHT22;3824;48.010;7.832;2022-09-25T09:04:44;15.70;99.90
7566;DHT22;3824;48.010;7.832;2022-09-25T09:07:15;15.70;99.90
7566;DHT22;3824;48.010;7.832;2022-09-25T09:09:46;15.80;99.90
7566;DHT22;3824;48.010;7.832;2022-09-25T09:12:18;16.00;99.90
7566;DHT22;3824;48.010;7.832;2022-09-25T09:14:49;16.10;99.90
7566;DHT22;3824;48.010;7.832;2022-09-25T09:17:18;16.30;99.90
7566;DHT22;3824;48.010;7.832;2022-09-25T09:19:47;16.40;99.90
7566;DHT22;3824;48.010;7.832;2022-09-25T09:22:19;16.50;99.90
7566;DHT22;3824;48.010;7.832;2022-09-25T09:24:53;16.60;99.90
7566;DHT22;3824;48.010;7.832;2022-09-25T09:30:31;16.70;99.90
7566;DHT22;3824;48.010;7.832;2022-09-25T09:33:26;16.80;99.90
7566;DHT22;3824;48.010;7.832;2022-09-25T09:36:02;16.80;99.90
7566;DHT22;3824;48.010;7.832;2022-09-25T09:38:38;16.80;99.90
7566;DHT22;3824;48.010;7.832;2022-09-25T09:41:24;16.80;99.90
7566;DHT22;3824;48.010;7.832;2022-09-25T09:44:18;16.90;99.90
7566;DHT22;3824;48.010;7.832;2022-09-25T09:46:55;16.90;99.90
7566;DHT22;3824;48.010;7.832;2022-09-25T09:49:28;16.90;99.90
7566;DHT22;3824;48.010;7.832;2022-09-25T09:52:01;16.90;99.90
7566;DHT22;3824;48.010;7.832;2022-09-25T09:54:34;16.90;99.90
7566;DHT22;3824;48.010;7.832;2022-09-25T09:57:09;16.90;99.90
7566;DHT22;3824;48.010;7.832;2022-09-25T09:59:43;16.90;99.90
7566;DHT22;3824;48.010;7.832;2022-09-25T10:02:19;17.10;99.90
7566;DHT22;3824;48.010;7.832;2022-09-25T10:04:50;17.20;99.90
7566;DHT22;3824;48.010;7.832;2022-09-25T10:07:20;17.40;99.90
7566;DHT22;3824;48.010;7.832;2022-09-25T10:09:48;17.50;99.90
7566;DHT22;3824;48.010;7.832;2022-09-25T10:12:25;17.60;99.90
7566;DHT22;3824;48.010;7.832;2022-09-25T10:14:53;17.80;99.90
7566;DHT22;3824;48.010;7.832;2022-09-25T10:17:22;17.80;99.90
7566;DHT22;3824;48.010;7.832;2022-09-25T10:19:52;18.00;99.90
7566;DHT22;3824;48.010;7.832;2022-09-25T10:22:22;18.10;99.90
7566;DHT22;3824;48.010;7.832;2022-09-25T10:24:53;18.20;99.90
7566;DHT22;3824;48.010;7.832;2022-09-25T10:27:28;18.40;99.90
7566;DHT22;3824;48.010;7.832;2022-09-25T10:32:50;18.80;99.90
7566;DHT22;3824;48.010;7.832;2022-09-25T10:35:20;18.90;99.90
7566;DHT22;3824;48.010;7.832;2022-09-25T10:37:50;19.10;99.90
7566;DHT22;3824;48.010;7.832;2022-09-25T10:40:24;19.10;99.90
7566;DHT22;3824;48.010;7.832;2022-09-25T10:43:03;19.30;99.90
7566;DHT22;3824;48.010;7.832;2022-09-25T10:45:32;19.40;99.90
7566;DHT22;3824;48.010;7.832;2022-09-25T10:48:00;19.50;99.90
7566;DHT22;3824;48.010;7.832;2022-09-25T10:51:04;19.70;99.90
7566;DHT22;3824;48.010;7.832;2022-09-25T10:53:32;19.70;99.90
7566;DHT22;3824;48.010;7.832;2022-09-25T10:56:02;19.70;99.90
7566;DHT22;3824;48.010;7.832;2022-09-25T10:58:35;19.60;99.90
7566;DHT22;3824;48.010;7.832;2022-09-25T11:01:04;19.70;99.90
7566;DHT22;3824;48.010;7.832;2022-09-25T11:03:37;19.80;99.90
7566;DHT22;3824;48.010;7.832;2022-09-25T11:06:09;19.90;99.90
7566;DHT22;3824;48.010;7.832;2022-09-25T11:08:47;20.00;99.90
7566;DHT22;3824;48.010;7.832;2022-09-25T11:11:20;20.10;99.90
7566;DHT22;3824;48.010;7.832;2022-09-25T11:13:52;20.10;99.90
7566;DHT22;3824;48.010;7.832;2022-09-25T11:16:20;20.20;99.90
7566;DHT22;3824;48.010;7.832;2022-09-25T11:18:50;20.20;99.90
7566;DHT22;3824;48.010;7.832;2022-09-25T11:21:20;20.20;99.90
7566;DHT22;3824;48.010;7.832;2022-09-25T11:24:04;20.10;99.90
7566;DHT22;3824;48.010;7.832;2022-09-25T11:26:35;20.00;99.90
7566;DHT22;3824;48.010;7.832;2022-09-25T11:29:09;19.80;99.90
7566;DHT22;3824;48.010;7.832;2022-09-25T11:31:41;19.80;99.90
7566;DHT22;3824;48.010;7.832;2022-09-25T11:34:15;19.70;99.90
7566;DHT22;3824;48.010;7.832;2022-09-25T11:36:46;19.70;99.90
7566;DHT22;3824;48.010;7.832;2022-09-25T11:39:19;19.80;99.90
7566;DHT22;3824;48.010;7.832;2022-09-25T11:42:10;19.80;99.90
7566;DHT22;3824;48.010;7.832;2022-09-25T11:44:44;19.80;99.90
7566;DHT22;3824;48.010;7.832;2022-09-25T11:47:27;19.90;99.90
7566;DHT22;3824;48.010;7.832;2022-09-25T11:49:59;20.00;99.90
7566;DHT22;3824;48.010;7.832;2022-09-25T11:52:36;20.20;99.90
7566;DHT22;3824;48.010;7.832;2022-09-25T11:55:24;20.40;99.90
7566;DHT22;3824;48.010;7.832;2022-09-25T11:58:03;20.50;99.90
7566;DHT22;3824;48.010;7.832;2022-09-25T12:00:41;20.60;99.90
7566;DHT22;3824;48.010;7.832;2022-09-25T12:03:31;20.60;99.90
7566;DHT22;3824;48.010;7.832;2022-09-25T12:09:34;20.50;99.90
7566;DHT22;3824;48.010;7.832;2022-09-25T12:12:12;20.10;99.90
7566;DHT22;3824;48.010;7.832;2022-09-25T12:14:49;19.70;99.90
7566;DHT22;3824;48.010;7.832;2022-09-25T12:17:22;19.40;99.90
7566;DHT22;3824;48.010;7.832;2022-09-25T12:19:58;19.20;99.90
7566;DHT22;3824;48.010;7.832;2022-09-25T12:22:39;19.10;99.90
7566;DHT22;3824;48.010;7.832;2022-09-25T12:25:20;19.10;99.90
7566;DHT22;3824;48.010;7.832;2022-09-25T12:27:50;19.10;99.90
7566;DHT22;3824;48.010;7.832;2022-09-25T12:30:22;19.20;99.90
7566;DHT22;3824;48.010;7.832;2022-09-25T12:33:03;19.10;99.90
7566;DHT22;3824;48.010;7.832;2022-09-25T12:35:43;19.20;99.90
7566;DHT22;3824;48.010;7.832;2022-09-25T12:38:29;19.10;99.90
7566;DHT22;3824;48.010;7.832;2022-09-25T12:41:03;19.00;99.90
7566;DHT22;3824;48.010;7.832;2022-09-25T12:43:37;18.90;99.90
7566;DHT22;3824;48.010;7.832;2022-09-25T12:46:10;18.80;99.90
7566;DHT22;3824;48.010;7.832;2022-09-25T12:48:42;18.70;99.90
7566;DHT22;3824;48.010;7.832;2022-09-25T12:51:13;18.60;99.90
7566;DHT22;3824;48.010;7.832;2022-09-25T12:53:44;18.40;99.90
7566;DHT22;3824;48.010;7.832;2022-09-25T12:56:17;18.20;99.90
7566;DHT22;3824;48.010;7.832;2022-09-25T12:58:55;17.80;99.90
7566;DHT22;3824;48.010;7.832;2022-09-25T13:01:28;17.60;99.90
7566;DHT22;3824;48.010;7.832;2022-09-25T13:04:19;17.30;99.90
7566;DHT22;3824;48.010;7.832;2022-09-25T13:06:51;17.10;99.90
7566;DHT22;3824;48.010;7.832;2022-09-25T13:09:29;16.90;99.90
7566;DHT22;3824;48.010;7.832;2022-09-25T13:12:03;16.80;99.90
7566;DHT22;3824;48.010;7.832;2022-09-25T13:14:35;16.70;99.90
7566;DHT22;3824;48.010;7.832;2022-09-25T13:17:05;16.70;99.90
7566;DHT22;3824;48.010;7.832;2022-09-25T13:19:36;16.60;99.90
7566;DHT22;3824;48.010;7.832;2022-09-25T13:22:05;16.60;99.90
7566;DHT22;3824;48.010;7.832;2022-09-25T13:24:45;16.60;99.90
7566;DHT22;3824;48.010;7.832;2022-09-25T13:27:18;16.50;99.90
7566;DHT22;3824;48.010;7.832;2022-09-25T13:29:53;16.40;99.90
7566;DHT22;3824;48.010;7.832;2022-09-25T13:32:22;16.30;99.90
7566;DHT22;3824;48.010;7.832;2022-09-25T13:34:52;16.20;99.90
7566;DHT22;3824;48.010;7.832;2022-09-25T13:37:24;16.10;99.90
7566;DHT22;3824;48.010;7.832;2022-09-25T13:39:52;16.10;99.90
7566;DHT22;3824;48.010;7.832;2022-09-25T13:42:39;16.10;99.90
7566;DHT22;3824;48.010;7.832;2022-09-25T13:45:29;16.20;99.90
7566;DHT22;3824;48.010;7.832;2022-09-25T13:48:03;16.40;99.90
7566;DHT22;3824;48.010;7.832;2022-09-25T13:50:39;16.50;99.90
7566;DHT22;3824;48.010;7.832;2022-09-25T14:01:51;17.60;99.90
7566;DHT22;3824;48.010;7.832;2022-09-25T14:04:34;16.80;99.90
7566;DHT22;3824;48.010;7.832;2022-09-25T14:07:06;16.90;99.90
7566;DHT22;3824;48.010;7.832;2022-09-25T14:09:41;17.00;99.90
7566;DHT22;3824;48.010;7.832;2022-09-25T14:12:15;17.00;99.90
7566;DHT22;3824;48.010;7.832;2022-09-25T14:14:48;17.10;99.90
7566;DHT22;3824;48.010;7.832;2022-09-25T14:17:18;17.20;99.90
7566;DHT22;3824;48.010;7.832;2022-09-25T14:19:48;17.40;99.90
7566;DHT22;3824;48.010;7.832;2022-09-25T14:22:20;17.50;99.90
7566;DHT22;3824;48.010;7.832;2022-09-25T14:24:49;17.70;99.90
7566;DHT22;3824;48.010;7.832;2022-09-25T14:27:20;17.70;99.90
7566;DHT22;3824;48.010;7.832;2022-09-25T14:29:49;17.90;99.90
7566;DHT22;3824;48.010;7.832;2022-09-25T14:32:29;17.90;99.90
7566;DHT22;3824;48.010;7.832;2022-09-25T14:35:13;17.90;99.90
7566;DHT22;3824;48.010;7.832;2022-09-25T14:37:55;17.90;99.90
7566;DHT22;3824;48.010;7.832;2022-09-25T14:40:28;17.80;99.90
7566;DHT22;3824;48.010;7.832;2022-09-25T14:43:14;17.70;99.90
7566;DHT22;3824;48.010;7.832;2022-09-25T14:45:59;17.60;99.90
7566;DHT22;3824;48.010;7.832;2022-09-25T14:48:30;17.50;99.90
7566;DHT22;3824;48.010;7.832;2022-09-25T14:51:03;17.30;99.90
7566;DHT22;3824;48.010;7.832;2022-09-25T14:53:34;17.10;99.90
7566;DHT22;3824;48.010;7.832;2022-09-25T14:56:02;16.80;99.90
7566;DHT22;3824;48.010;7.832;2022-09-25T14:58:34;16.70;99.90
7566;DHT22;3824;48.010;7.832;2022-09-25T15:01:12;16.70;99.90
7566;DHT22;3824;48.010;7.832;2022-09-25T15:03:43;16.80;99.90
7566;DHT22;3824;48.010;7.832;2022-09-25T15:06:12;16.80;99.90
7566;DHT22;3824;48.010;7.832;2022-09-25T15:08:49;17.00;99.90
7566;DHT22;3824;48.010;7.832;2022-09-25T15:11:19;17.10;99.90
7566;DHT22;3824;48.010;7.832;2022-09-25T15:13:46;17.10;99.90
7566;DHT22;3824;48.010;7.832;2022-09-25T15:16:18;17.00;99.90
7566;DHT22;3824;48.010;7.832;2022-09-25T15:19:07;16.70;99.90
7566;DHT22;3824;48.010;7.832;2022-09-25T15:21:40;16.40;99.90
7566;DHT22;3824;48.010;7.832;2022-09-25T15:24:12;16.20;99.90
7566;DHT22;3824;48.010;7.832;2022-09-25T15:26:44;16.10;99.90
7566;DHT22;3824;48.010;7.832;2022-09-25T15:29:14;16.00;99.90
7566;DHT22;3824;48.010;7.832;2022-09-25T15:31:44;16.00;99.90
7566;DHT22;3824;48.010;7.832;2022-09-25T15:34:21;16.00;99.90
7566;DHT22;3824;48.010;7.832;2022-09-25T15:36:49;17.20;99.90
7566;DHT22;3824;48.010;7.832;2022-09-25T15:39:21;16.00;99.90
7566;DHT22;3824;48.010;7.832;2022-09-25T15:41:48;16.10;99.90
7566;DHT22;3824;48.010;7.832;2022-09-25T15:44:18;16.10;99.90
7566;DHT22;3824;48.010;7.832;2022-09-25T15:46:48;16.10;99.90
7566;DHT22;3824;48.010;7.832;2022-09-25T15:49:18;16.10;99.90
7566;DHT22;3824;48.010;7.832;2022-09-25T15:51:55;16.10;99.90
7566;DHT22;3824;48.010;7.832;2022-09-25T15:54:34;16.10;99.90
7566;DHT22;3824;48.010;7.832;2022-09-25T15:57:04;16.10;99.90
7566;DHT22;3824;48.010;7.832;2022-09-25T15:59:34;16.20;99.90
7566;DHT22;3824;48.010;7.832;2022-09-25T16:02:24;16.20;99.90
7566;DHT22;3824;48.010;7.832;2022-09-25T16:05:11;16.20;99.90
7566;DHT22;3824;48.010;7.832;2022-09-25T16:07:40;16.10;99.90
7566;DHT22;3824;48.010;7.832;2022-09-25T16:10:28;16.10;99.90
7566;DHT22;3824;48.010;7.832;2022-09-25T16:12:56;16.10;99.90
7566;DHT22;3824;48.010;7.832;2022-09-25T16:15:43;16.10;99.90
7566;DHT22;3824;48.010;7.832;2022-09-25T16:18:36;16.10;99.90
7566;DHT22;3824;48.010;7.832;2022-09-25T16:21:13;16.00;99.90
7566;DHT22;3824;48.010;7.832;2022-09-25T16:23:41;15.90;99.90
7566;DHT22;3824;48.010;7.832;2022-09-25T16:26:14;15.90;99.90
7566;DHT22;3824;48.010;7.832;2022-09-25T16:28:47;15.90;99.90
7566;DHT22;3824;48.010;7.832;2022-09-25T16:31:19;15.80;99.90
7566;DHT22;3824;48.010;7.832;2022-09-25T16:33:49;15.80;99.90
7566;DHT22;3824;48.010;7.832;2022-09-25T16:36:17;15.70;99.90
7566;DHT22;3824;48.010;7.832;2022-09-25T16:39:09;15.60;99.90
7566;DHT22;3824;48.010;7.832;2022-09-25T16:41:37;15.50;99.90
7566;DHT22;3824;48.010;7.832;2022-09-25T16:44:10;15.50;99.90
7566;DHT22;3824;48.010;7.832;2022-09-25T16:46:39;15.40;99.90
7566;DHT22;3824;48.010;7.832;2022-09-25T16:49:08;15.30;99.90
7566;DHT22;3824;48.010;7.832;2022-09-25T16:51:36;15.20;99.90
7566;DHT22;3824;48.010;7.832;2022-09-25T16:54:11;15.20;99.90
7566;DHT22;3824;48.010;7.832;2022-09-25T16:56:38;15.10;99.90